Time;durP1;ratioP1;P1;durP2;ratioP2;P2;SDS_P1;SDS_P2;PMS_P1;PMS_P2;Temp;Humidity;BMP_temperature;BMP_pressure;BME280_temperature;BME280_humidity;BME280_pressure;Samples;Min_cycle;Max_cycle;Signal;HPM_P1;HPM_P2
2023/07/22 00:02:23;;;;;;;0.20;0.20;;;20.80;99.90;;;;;;5036972;28;20028;-73
2023/07/22 00:04:52;;;;;;;0.40;0.40;;;21.10;99.90;;;;;;5044798;28;20025;-72
2023/07/22 00:07:18;;;;;;;0.10;0.10;;;21.50;99.90;;;;;;5057103;28;20041;-80
2023/07/22 00:09:44;;;;;;;0.10;0.10;;;21.40;99.90;;;;;;5057169;28;20717;-77
2023/07/22 00:12:10;;;;;;;0.52;0.52;;;21.70;99.90;;;;;;5056989;28;20643;-82
2023/07/22 00:14:39;;;;;;;0.10;0.10;;;22.00;99.90;;;;;;5037139;28;20021;-75
2023/07/22 00:17:05;;;;;;;0.10;0.10;;;22.30;99.90;;;;;;5036871;28;20060;-78
2023/07/22 00:19:31;;;;;;;0.10;0.10;;;22.50;99.90;;;;;;5037161;28;20045;-78
2023/07/22 00:21:57;;;;;;;0.10;0.10;;;22.70;99.90;;;;;;5037348;28;20048;-78
2023/07/22 00:24:23;;;;;;;0.10;0.10;;;22.90;99.90;;;;;;5037204;28;20017;-72
2023/07/22 00:26:52;;;;;;;0.10;0.10;;;22.90;99.90;;;;;;5037355;28;20582;-73
2023/07/22 00:29:17;;;;;;;0.10;0.10;;;23.20;99.90;;;;;;5037053;28;20577;-73
2023/07/22 00:31:44;;;;;;;1.25;1.17;;;23.10;99.90;;;;;;5036981;28;20025;-72
2023/07/22 00:34:10;;;;;;;0.10;0.10;;;22.80;99.90;;;;;;5036156;28;20027;-78
2023/07/22 00:36:37;;;;;;;0.10;0.10;;;22.60;99.90;;;;;;5036749;28;20018;-76
2023/07/22 00:39:04;;;;;;;0.10;0.10;;;22.70;99.90;;;;;;5035754;28;20596;-75
2023/07/22 00:41:30;;;;;;;0.10;0.10;;;22.70;99.90;;;;;;5037479;28;20108;-79
2023/07/22 00:43:55;;;;;;;5.03;1.50;;;22.60;99.90;;;;;;5037063;28;20104;-72
2023/07/22 00:46:21;;;;;;;19.70;3.72;;;22.40;99.90;;;;;;5037395;28;20017;-72
2023/07/22 00:48:48;;;;;;;0.08;0.08;;;23.30;99.90;;;;;;5041055;28;20032;-72
2023/07/22 00:51:14;;;;;;;0.10;0.10;;;22.80;99.90;;;;;;5041659;28;20070;-75
2023/07/22 00:53:40;;;;;;;1.55;1.45;;;23.00;99.90;;;;;;5041088;28;20578;-77
2023/07/22 00:56:06;;;;;;;0.10;0.10;;;23.20;99.90;;;;;;5041073;28;20017;-74
2023/07/22 00:58:33;;;;;;;0.10;0.10;;;23.10;99.90;;;;;;5040373;28;20048;-72
2023/07/22 01:00:59;;;;;;;0.10;0.10;;;22.90;99.90;;;;;;5040485;28;20025;-74
2023/07/22 01:03:25;;;;;;;0.10;0.10;;;22.80;99.90;;;;;;5039787;28;20025;-83
2023/07/22 01:05:53;;;;;;;0.10;0.10;;;23.00;99.90;;;;;;5040538;28;20007;-71
2023/07/22 01:08:19;;;;;;;0.88;0.85;;;22.60;99.90;;;;;;5040378;28;20029;-73
2023/07/22 01:10:45;;;;;;;0.10;0.10;;;22.50;99.90;;;;;;5040232;28;20028;-72
2023/07/22 01:13:10;;;;;;;0.10;0.10;;;22.60;99.90;;;;;;5040090;28;20021;-78
2023/07/22 01:15:37;;;;;;;0.10;0.10;;;22.90;99.90;;;;;;5040215;28;20663;-76
2023/07/22 01:18:03;;;;;;;6.75;6.18;;;22.70;99.90;;;;;;5039966;28;20134;-76
2023/07/22 01:20:30;;;;;;;3.53;2.63;;;22.70;99.90;;;;;;5040025;28;20748;-82
2023/07/22 01:22:56;;;;;;;1.42;1.38;;;22.80;99.90;;;;;;5040785;28;20021;-76
2023/07/22 01:25:23;;;;;;;2.10;1.95;;;23.10;99.90;;;;;;5039793;28;20131;-76
2023/07/22 01:27:52;;;;;;;0.00;0.00;;;24.00;99.90;;;;;;5038251;28;20036;-72
2023/07/22 01:30:19;;;;;;;2.45;1.85;;;23.30;99.90;;;;;;5039604;28;20148;-71
2023/07/22 01:32:46;;;;;;;0.32;0.30;;;23.40;99.90;;;;;;5039460;28;20731;-75
2023/07/22 01:35:12;;;;;;;0.10;0.10;;;23.50;99.90;;;;;;5040069;28;20507;-73
2023/07/22 01:37:37;;;;;;;0.10;0.10;;;23.60;99.90;;;;;;5039556;28;20013;-71
2023/07/22 01:40:14;;;;;;;0.10;0.10;;;23.70;99.90;;;;;;5039303;28;20082;-76
2023/07/22 01:42:41;;;;;;;0.10;0.10;;;23.90;99.90;;;;;;5039337;28;20020;-71
2023/07/22 01:45:10;;;;;;;0.10;0.10;;;24.00;99.90;;;;;;5039495;28;20199;-77
2023/07/22 01:47:36;;;;;;;0.10;0.10;;;22.30;99.90;;;;;;5039130;28;20282;-73
2023/07/22 01:50:12;;;;;;;0.30;0.30;;;24.00;99.90;;;;;;5038893;28;20037;-73
2023/07/22 01:52:38;;;;;;;0.10;0.10;;;22.90;99.90;;;;;;5039477;28;20104;-72
2023/07/22 01:55:05;;;;;;;0.10;0.10;;;24.10;99.90;;;;;;5037949;28;20132;-73
2023/07/22 01:57:33;;;;;;;0.10;0.10;;;24.10;99.90;;;;;;5038776;28;20778;-80
2023/07/22 01:59:58;;;;;;;0.17;0.17;;;24.10;99.90;;;;;;5038880;28;20012;-72
2023/07/22 02:02:25;;;;;;;0.10;0.10;;;24.10;99.90;;;;;;5038716;28;20017;-72
2023/07/22 02:04:50;;;;;;;0.05;0.05;;;24.10;99.90;;;;;;5039333;28;20016;-80
2023/07/22 02:07:16;;;;;;;0.10;0.10;;;24.10;99.90;;;;;;5039097;28;20017;-77
2023/07/22 02:09:42;;;;;;;0.00;0.00;;;24.10;99.90;;;;;;5038928;28;20051;-72
2023/07/22 02:12:08;;;;;;;0.10;0.10;;;24.10;99.90;;;;;;5037127;28;20037;-76
2023/07/22 02:14:34;;;;;;;6.00;1.58;;;24.00;99.90;;;;;;5037238;28;20090;-75
2023/07/22 02:16:59;;;;;;;0.10;0.10;;;24.10;99.90;;;;;;5039145;28;20350;-72
2023/07/22 02:19:25;;;;;;;0.60;0.60;;;24.10;99.90;;;;;;5038743;28;20550;-73
2023/07/22 02:21:51;;;;;;;0.95;0.95;;;24.00;99.90;;;;;;5038862;28;20016;-80
2023/07/22 02:24:17;;;;;;;0.10;0.10;;;23.90;99.90;;;;;;5037032;28;20082;-75
2023/07/22 02:26:42;;;;;;;0.10;0.10;;;23.90;99.90;;;;;;5038705;28;20020;-71
2023/07/22 02:29:08;;;;;;;3.97;3.63;;;23.70;99.90;;;;;;5038774;28;20025;-73
2023/07/22 02:31:34;;;;;;;0.10;0.10;;;23.40;99.90;;;;;;5038265;28;20017;-72
2023/07/22 02:34:00;;;;;;;0.10;0.10;;;23.00;99.90;;;;;;5038334;28;20605;-74
2023/07/22 02:36:26;;;;;;;0.25;0.25;;;22.80;99.90;;;;;;5038324;28;20020;-73
2023/07/22 02:38:51;;;;;;;0.08;0.08;;;22.70;99.90;;;;;;5038185;28;20021;-72
2023/07/22 02:41:18;;;;;;;0.10;0.10;;;22.30;99.90;;;;;;5037779;28;20017;-72
2023/07/22 02:43:43;;;;;;;0.20;0.20;;;22.20;99.90;;;;;;5037904;28;20060;-72
2023/07/22 02:46:09;;;;;;;3.20;1.98;;;22.00;99.90;;;;;;5036779;28;20110;-73
2023/07/22 02:48:35;;;;;;;0.10;0.10;;;21.70;99.90;;;;;;5038377;28;20029;-72
2023/07/22 02:51:09;;;;;;;0.10;0.10;;;21.30;99.90;;;;;;5037783;28;20090;-73
2023/07/22 02:53:39;;;;;;;0.00;0.00;;;21.00;99.90;;;;;;5036755;28;20728;-76
2023/07/22 02:56:07;;;;;;;0.20;0.20;;;20.70;99.90;;;;;;5037975;28;20062;-81
2023/07/22 02:58:34;;;;;;;0.08;0.08;;;20.40;99.90;;;;;;5036372;28;20045;-79
2023/07/22 03:01:00;;;;;;;1.63;1.55;;;20.40;99.90;;;;;;5037853;28;20108;-77
2023/07/22 03:03:25;;;;;;;0.10;0.10;;;20.30;99.90;;;;;;5032323;28;20277;-72
2023/07/22 03:05:52;;;;;;;0.63;0.60;;;20.20;99.90;;;;;;5027503;28;20202;-72
2023/07/22 03:08:18;;;;;;;0.85;0.85;;;20.40;99.90;;;;;;5027506;28;20526;-72
2023/07/22 03:10:48;;;;;;;0.10;0.10;;;20.90;99.90;;;;;;5034593;28;20045;-72
2023/07/22 03:13:15;;;;;;;0.10;0.10;;;21.40;99.90;;;;;;5039498;28;20116;-73
2023/07/22 03:15:40;;;;;;;0.10;0.10;;;21.90;99.90;;;;;;5038739;28;20028;-79
2023/07/22 03:18:09;;;;;;;0.10;0.10;;;22.40;99.90;;;;;;5037852;28;20014;-73
2023/07/22 03:20:36;;;;;;;0.10;0.10;;;22.60;99.90;;;;;;5038629;28;20100;-76
2023/07/22 03:23:03;;;;;;;0.10;0.10;;;22.20;99.90;;;;;;5038107;28;20104;-73
2023/07/22 03:25:29;;;;;;;0.10;0.10;;;21.70;99.90;;;;;;5038155;28;20025;-73
2023/07/22 03:27:56;;;;;;;0.10;0.10;;;21.50;99.90;;;;;;5037717;28;20021;-72
2023/07/22 03:30:22;;;;;;;0.10;0.10;;;21.60;99.90;;;;;;5038238;28;20031;-87
2023/07/22 03:32:51;;;;;;;0.10;0.10;;;21.60;99.90;;;;;;5037919;28;20037;-73
2023/07/22 03:35:17;;;;;;;0.10;0.10;;;21.70;99.90;;;;;;5037908;28;20021;-80
2023/07/22 03:37:43;;;;;;;0.10;0.10;;;21.90;99.90;;;;;;5037740;28;20052;-81
2023/07/22 03:40:20;;;;;;;0.10;0.10;;;22.30;99.90;;;;;;5038000;28;20064;-72
2023/07/22 03:42:47;;;;;;;0.35;0.35;;;22.10;99.90;;;;;;5036461;28;20032;-72
2023/07/22 03:45:13;;;;;;;0.10;0.10;;;22.00;99.90;;;;;;5037878;28;20025;-73
2023/07/22 03:47:40;;;;;;;0.85;0.82;;;22.00;99.90;;;;;;5036764;28;20036;-72
2023/07/22 03:50:06;;;;;;;0.10;0.10;;;22.30;99.90;;;;;;5037373;28;20454;-72
2023/07/22 03:52:32;;;;;;;0.10;0.10;;;22.50;99.90;;;;;;5038313;28;20048;-73
2023/07/22 03:54:58;;;;;;;0.50;0.50;;;22.80;99.90;;;;;;5037784;28;20056;-75
2023/07/22 03:57:28;;;;;;;0.10;0.10;;;23.00;99.90;;;;;;5038366;28;20053;-77
2023/07/22 03:59:57;;;;;;;0.40;0.40;;;23.20;99.90;;;;;;5037672;28;20743;-88
2023/07/22 04:02:24;;;;;;;0.10;0.10;;;23.40;99.90;;;;;;5038377;28;20036;-89
2023/07/22 04:04:56;;;;;;;0.30;0.30;;;23.50;99.90;;;;;;5038575;28;20051;-86
2023/07/22 04:07:22;;;;;;;0.60;0.47;;;23.40;99.90;;;;;;5038411;28;20021;-76
2023/07/22 04:09:51;;;;;;;0.20;0.20;;;23.50;99.90;;;;;;5038410;28;20033;-78
2023/07/22 04:12:17;;;;;;;0.10;0.10;;;23.70;99.90;;;;;;5037206;28;20025;-78
2023/07/22 04:14:43;;;;;;;0.10;0.10;;;23.80;99.90;;;;;;5036685;28;20025;-82
2023/07/22 04:17:09;;;;;;;0.10;0.10;;;23.90;99.90;;;;;;5038306;28;20418;-85
2023/07/22 04:19:35;;;;;;;0.00;0.00;;;23.80;99.90;;;;;;5036952;28;20530;-78
2023/07/22 04:22:04;;;;;;;0.10;0.10;;;23.70;99.90;;;;;;5037075;28;20017;-76
2023/07/22 04:24:32;;;;;;;0.50;0.50;;;23.80;99.90;;;;;;5041519;28;20224;-76
2023/07/22 04:26:58;;;;;;;0.00;0.00;;;23.80;99.90;;;;;;5042048;28;20086;-77
2023/07/22 04:29:27;;;;;;;0.10;0.10;;;23.90;99.90;;;;;;5041557;28;20029;-74
2023/07/22 04:31:58;;;;;;;0.10;0.10;;;23.80;99.90;;;;;;5042260;28;20056;-79
2023/07/22 04:34:25;;;;;;;40.15;3.60;;;23.90;99.90;;;;;;5041677;28;20213;-80
2023/07/22 04:36:51;;;;;;;0.10;0.10;;;23.90;99.90;;;;;;5041437;28;20017;-84
2023/07/22 04:39:17;;;;;;;0.10;0.10;;;24.00;99.90;;;;;;5040997;28;20155;-82
2023/07/22 04:41:43;;;;;;;5.53;1.98;;;24.10;99.90;;;;;;5042337;28;20041;-74
2023/07/22 04:44:09;;;;;;;1.17;1.08;;;24.10;99.90;;;;;;5042257;28;20756;-84
2023/07/22 04:46:35;;;;;;;0.20;0.20;;;24.10;99.90;;;;;;5042485;28;20022;-71
2023/07/22 04:49:01;;;;;;;1.27;1.17;;;24.10;99.90;;;;;;5042520;28;20029;-73
2023/07/22 04:51:27;;;;;;;0.10;0.10;;;24.10;99.90;;;;;;5041097;28;20028;-73
2023/07/22 04:53:52;;;;;;;0.43;0.43;;;24.20;99.90;;;;;;5039416;28;20033;-76
2023/07/22 04:56:18;;;;;;;1.48;0.98;;;24.20;99.90;;;;;;5040898;28;20029;-72
2023/07/22 04:58:44;;;;;;;0.10;0.10;;;24.20;99.90;;;;;;5039450;28;20033;-77
2023/07/22 05:01:10;;;;;;;2.05;1.95;;;24.20;99.90;;;;;;5041470;28;20029;-76
2023/07/22 05:03:36;;;;;;;0.30;0.30;;;24.10;99.90;;;;;;5040561;28;20017;-85
2023/07/22 05:06:01;;;;;;;0.10;0.10;;;24.20;99.90;;;;;;5041715;28;20079;-72
2023/07/22 05:08:27;;;;;;;0.10;0.10;;;24.20;99.90;;;;;;5041100;28;20692;-73
2023/07/22 05:10:53;;;;;;;0.10;0.10;;;23.90;99.90;;;;;;5040175;28;20028;-72
2023/07/22 05:13:19;;;;;;;0.20;0.20;;;24.10;99.90;;;;;;5040515;28;20495;-78
2023/07/22 05:15:44;;;;;;;1.27;1.27;;;24.20;99.90;;;;;;5040810;28;20048;-71
2023/07/22 05:18:10;;;;;;;0.10;0.10;;;24.20;99.90;;;;;;5040683;28;20034;-73
2023/07/22 05:20:39;;;;;;;0.05;0.05;;;24.30;99.90;;;;;;5040174;28;20032;-74
2023/07/22 05:23:04;;;;;;;1.38;1.20;;;24.30;99.90;;;;;;5039961;28;20021;-72
2023/07/22 05:25:30;;;;;;;0.10;0.10;;;24.40;99.90;;;;;;5039671;28;20029;-77
2023/07/22 05:27:56;;;;;;;0.35;0.35;;;24.50;99.90;;;;;;5040230;28;20067;-76
2023/07/22 05:30:21;;;;;;;0.10;0.10;;;24.40;99.90;;;;;;5039923;28;20025;-77
2023/07/22 05:32:47;;;;;;;0.10;0.10;;;24.40;99.90;;;;;;5039118;28;20022;-73
2023/07/22 05:35:13;;;;;;;0.10;0.10;;;24.20;99.90;;;;;;5039966;28;20028;-72
2023/07/22 05:37:39;;;;;;;0.20;0.20;;;24.40;99.90;;;;;;5039550;28;20283;-74
2023/07/22 05:40:07;;;;;;;0.10;0.10;;;24.50;99.90;;;;;;5039748;28;20025;-76
2023/07/22 05:42:33;;;;;;;0.10;0.10;;;24.50;99.90;;;;;;5039496;28;20722;-72
2023/07/22 05:45:00;;;;;;;0.47;0.47;;;24.50;99.90;;;;;;5039477;28;20048;-82
2023/07/22 05:47:25;;;;;;;0.10;0.10;;;24.60;99.90;;;;;;5039389;28;20047;-72
2023/07/22 05:49:51;;;;;;;0.10;0.10;;;24.60;99.90;;;;;;5043513;28;20494;-74
2023/07/22 05:52:17;;;;;;;0.10;0.10;;;24.60;99.90;;;;;;5042718;28;20567;-71
2023/07/22 05:54:43;;;;;;;1.63;1.55;;;24.70;99.90;;;;;;5045110;28;20096;-72
2023/07/22 05:57:09;;;;;;;2.47;1.48;;;24.70;99.90;;;;;;5040217;28;20104;-72
2023/07/22 05:59:36;;;;;;;1.15;1.05;;;24.70;99.90;;;;;;5039678;28;20668;-72
2023/07/22 06:02:03;;;;;;;0.17;0.17;;;24.70;99.90;;;;;;5039966;28;20021;-78
2023/07/22 06:04:29;;;;;;;0.20;0.20;;;24.70;99.90;;;;;;5039572;28;20020;-76
2023/07/22 06:06:54;;;;;;;0.10;0.10;;;24.80;99.90;;;;;;5039048;28;20605;-72
2023/07/22 06:09:21;;;;;;;0.10;0.10;;;24.60;99.90;;;;;;5038792;28;20036;-76
2023/07/22 06:11:46;;;;;;;3.20;2.90;;;24.80;99.90;;;;;;5038489;28;20053;-71
2023/07/22 06:14:12;;;;;;;1.95;1.85;;;24.80;99.90;;;;;;5038896;28;20059;-78
2023/07/22 06:16:38;;;;;;;1.85;1.75;;;25.00;99.90;;;;;;5038738;28;20108;-84
2023/07/22 06:19:04;;;;;;;0.10;0.10;;;25.10;99.90;;;;;;5039185;28;20028;-71
2023/07/22 06:21:30;;;;;;;0.68;0.68;;;24.90;99.90;;;;;;5038873;28;20021;-77
2023/07/22 06:23:56;;;;;;;3.17;0.85;;;24.90;99.90;;;;;;5039802;28;20023;-84
2023/07/22 06:26:22;;;;;;;4.95;1.08;;;25.00;99.90;;;;;;5044919;28;20013;-76
2023/07/22 06:28:48;;;;;;;0.08;0.08;;;25.10;99.90;;;;;;5041899;28;20036;-72
2023/07/22 06:31:13;;;;;;;0.55;0.30;;;25.10;99.90;;;;;;5045283;28;20021;-82
2023/07/22 06:33:39;;;;;;;1.00;0.95;;;25.20;99.90;;;;;;5039770;28;20013;-78
2023/07/22 06:36:05;;;;;;;0.10;0.10;;;25.30;99.90;;;;;;5038264;28;20082;-75
2023/07/22 06:38:31;;;;;;;0.10;0.10;;;25.40;99.90;;;;;;5038200;28;20713;-72
2023/07/22 06:40:57;;;;;;;2.22;2.03;;;25.30;99.90;;;;;;5038724;28;20017;-72
2023/07/22 06:43:23;;;;;;;0.10;0.10;;;25.20;99.90;;;;;;5038317;28;20032;-73
2023/07/22 06:45:48;;;;;;;0.10;0.10;;;25.00;99.90;;;;;;5037309;28;20021;-77
2023/07/22 06:48:14;;;;;;;1.60;1.20;;;24.80;99.90;;;;;;5038018;28;20017;-73
2023/07/22 06:50:46;;;;;;;0.10;0.10;;;24.90;99.90;;;;;;5037899;28;20100;-81
2023/07/22 06:53:14;;;;;;;0.00;0.00;;;25.10;99.90;;;;;;5037093;28;20013;-71
2023/07/22 06:55:47;;;;;;;0.10;0.10;;;25.00;99.90;;;;;;5038145;28;20638;-72
2023/07/22 06:58:13;;;;;;;;;;;25.00;99.90;;;;;;5038023;28;20041;-72
2023/07/22 07:00:39;;;;;;;0.10;0.10;;;25.00;99.90;;;;;;5037647;28;19900;-71
2023/07/22 07:03:04;;;;;;;1.95;0.75;;;25.00;99.90;;;;;;5037781;28;20021;-71
2023/07/22 07:05:30;;;;;;;0.10;0.10;;;24.90;99.90;;;;;;5036091;28;20021;-72
2023/07/22 07:07:56;;;;;;;0.43;0.30;;;24.80;99.90;;;;;;5037972;28;20021;-73
2023/07/22 07:10:21;;;;;;;0.20;0.20;;;24.70;99.90;;;;;;5038157;28;20041;-74
2023/07/22 07:12:47;;;;;;;0.10;0.10;;;24.90;99.90;;;;;;5037223;28;20025;-74
2023/07/22 07:15:13;;;;;;;0.10;0.10;;;24.90;99.90;;;;;;5037532;28;20031;-72
2023/07/22 07:17:39;;;;;;;0.10;0.10;;;25.00;99.90;;;;;;5037278;28;20578;-72
2023/07/22 07:20:05;;;;;;;0.05;0.05;;;25.20;99.90;;;;;;5037526;28;20100;-72
2023/07/22 07:22:31;;;;;;;0.10;0.10;;;25.20;99.90;;;;;;5037294;28;20028;-72
2023/07/22 07:24:57;;;;;;;4.38;3.65;;;25.30;99.90;;;;;;5038119;28;20563;-72
2023/07/22 07:27:23;;;;;;;0.10;0.10;;;25.40;99.90;;;;;;5038023;28;20055;-75
2023/07/22 07:29:49;;;;;;;0.10;0.10;;;25.60;99.90;;;;;;5037527;28;20029;-83
2023/07/22 07:32:15;;;;;;;0.10;0.10;;;25.60;99.90;;;;;;5037697;28;20029;-72
2023/07/22 07:34:40;;;;;;;0.10;0.10;;;25.70;99.90;;;;;;5037212;28;20016;-77
2023/07/22 07:37:06;;;;;;;0.45;0.45;;;25.90;99.90;;;;;;5036961;28;20101;-72
2023/07/22 07:39:32;;;;;;;0.10;0.10;;;26.10;99.90;;;;;;5037597;28;20579;-72
2023/07/22 07:41:58;;;;;;;0.10;0.10;;;25.70;99.90;;;;;;5035657;28;20037;-71
2023/07/22 07:44:23;;;;;;;0.10;0.10;;;26.40;99.90;;;;;;5037367;28;20033;-71
2023/07/22 07:46:49;;;;;;;0.00;0.00;;;26.50;99.90;;;;;;5037375;28;20015;-81
2023/07/22 07:49:15;;;;;;;0.10;0.10;;;26.50;99.90;;;;;;5037120;28;20494;-71
2023/07/22 07:51:42;;;;;;;0.00;0.00;;;26.50;99.90;;;;;;5036830;28;20009;-74
2023/07/22 07:54:08;;;;;;;0.10;0.10;;;26.70;99.90;;;;;;5037007;28;20033;-72
2023/07/22 07:56:34;;;;;;;3.83;1.05;;;26.70;99.90;;;;;;5036981;28;20028;-71
2023/07/22 07:59:00;;;;;;;0.00;0.00;;;26.70;99.90;;;;;;5036529;28;20303;-72
2023/07/22 08:01:26;;;;;;;0.20;0.15;;;;;;;;;;5037150;28;20021;-72
2023/07/22 08:03:51;;;;;;;0.10;0.10;;;26.90;99.90;;;;;;5037041;28;20032;-72
2023/07/22 08:06:17;;;;;;;0.80;0.75;;;26.90;99.90;;;;;;5038092;28;20013;-76
2023/07/22 08:08:43;;;;;;;0.00;0.00;;;27.00;99.90;;;;;;5037150;28;20037;-72
2023/07/22 08:11:13;;;;;;;2.92;1.45;;;27.10;99.90;;;;;;5035125;28;20040;-74
2023/07/22 08:13:40;;;;;;;0.00;0.00;;;27.10;99.90;;;;;;5035288;28;20029;-73
2023/07/22 08:16:08;;;;;;;0.00;0.00;;;27.50;99.90;;;;;;5036586;28;20033;-73
2023/07/22 08:18:35;;;;;;;0.20;0.20;;;27.30;99.90;;;;;;5035437;28;20015;-74
2023/07/22 08:21:06;;;;;;;1.45;0.55;;;27.30;99.90;;;;;;5036933;28;20080;-73
2023/07/22 08:23:32;;;;;;;0.55;0.55;;;27.30;99.90;;;;;;5036493;28;20056;-75
2023/07/22 08:25:58;;;;;;;0.22;0.22;;;27.40;99.90;;;;;;5037189;28;20029;-83
2023/07/22 08:28:24;;;;;;;0.32;0.32;;;27.60;99.90;;;;;;5036743;28;20663;-73
2023/07/22 08:30:49;;;;;;;0.57;0.57;;;27.70;99.90;;;;;;5036715;28;20032;-75
2023/07/22 08:33:16;;;;;;;0.10;0.10;;;28.00;99.90;;;;;;5036572;28;20026;-73
2023/07/22 08:35:42;;;;;;;0.80;0.73;;;28.10;99.90;;;;;;5036674;28;20021;-75
2023/07/22 08:38:08;;;;;;;0.55;0.55;;;28.00;99.90;;;;;;5037011;28;20052;-73
2023/07/22 08:40:34;;;;;;;0.90;0.90;;;29.30;99.90;;;;;;5035380;28;20679;-75
2023/07/22 08:43:03;;;;;;;1.30;1.20;;;27.90;99.90;;;;;;5036295;28;20447;-73
2023/07/22 08:45:36;;;;;;;0.10;0.10;;;27.90;99.90;;;;;;5036649;28;20024;-74
2023/07/22 08:48:07;;;;;;;0.00;0.00;;;28.10;99.90;;;;;;5036430;28;20615;-74
2023/07/22 08:50:50;;;;;;;0.30;0.28;;;27.90;99.90;;;;;;5036928;28;20032;-75
2023/07/22 08:53:16;;;;;;;0.00;0.00;;;27.90;99.90;;;;;;5036672;28;20021;-72
2023/07/22 08:55:43;;;;;;;2.63;1.85;;;27.80;99.90;;;;;;5036390;28;20280;-73
2023/07/22 08:58:12;;;;;;;0.00;0.00;;;28.00;99.90;;;;;;5036661;28;20071;-77
2023/07/22 09:00:39;;;;;;;0.10;0.10;;;28.20;99.90;;;;;;5036392;28;20613;-73
2023/07/22 09:03:05;;;;;;;0.40;0.40;;;28.40;99.90;;;;;;5037161;28;20021;-74
2023/07/22 09:05:35;;;;;;;2.80;2.55;;;28.50;99.90;;;;;;5037149;28;20205;-72
2023/07/22 09:08:07;;;;;;;0.00;0.00;;;28.40;99.90;;;;;;5037902;28;20032;-73
2023/07/22 09:10:34;;;;;;;0.75;0.55;;;28.60;99.90;;;;;;5039918;28;20071;-76
2023/07/22 09:13:00;;;;;;;0.10;0.10;;;28.80;99.90;;;;;;5042432;28;20032;-77
2023/07/22 09:15:27;;;;;;;0.17;0.17;;;29.10;99.90;;;;;;5044064;28;20521;-74
2023/07/22 09:17:53;;;;;;;0.70;0.70;;;29.80;99.90;;;;;;5046182;28;20028;-82
2023/07/22 09:20:20;;;;;;;0.57;0.57;;;29.10;99.90;;;;;;5045752;28;20017;-74
2023/07/22 09:22:50;;;;;;;0.25;0.25;;;29.40;99.90;;;;;;5042553;28;20060;-78
2023/07/22 09:25:20;;;;;;;0.17;0.15;;;29.50;99.90;;;;;;5039093;28;20374;-76
2023/07/22 09:27:47;;;;;;;0.20;0.20;;;29.60;99.90;;;;;;5028370;28;20472;-73
2023/07/22 09:30:34;;;;;;;0.20;0.20;;;29.80;99.90;;;;;;5031465;28;20029;-73
2023/07/22 09:33:02;;;;;;;1.10;1.00;;;29.90;99.90;;;;;;5036034;28;20067;-79
2023/07/22 09:35:44;;;;;;;0.20;0.20;;;29.90;99.90;;;;;;5040126;28;20029;-80
2023/07/22 09:38:11;;;;;;;0.43;0.43;;;29.90;99.90;;;;;;5040114;28;20515;-77
2023/07/22 09:40:40;;;;;;;0.05;0.05;;;29.60;99.90;;;;;;5040520;28;20029;-85
2023/07/22 09:43:09;;;;;;;0.10;0.10;;;30.30;99.90;;;;;;5038463;28;20032;-74
2023/07/22 09:45:37;;;;;;;5.25;3.05;;;30.20;99.90;;;;;;5040049;28;20039;-72
2023/07/22 09:48:04;;;;;;;15.30;2.30;;;30.30;99.90;;;;;;5039400;28;20013;-78
2023/07/22 09:50:30;;;;;;;1.10;0.88;;;30.20;99.90;;;;;;5039903;28;20025;-74
2023/07/22 09:53:03;;;;;;;0.40;0.40;;;30.30;99.90;;;;;;5041292;28;20666;-76
2023/07/22 09:55:31;;;;;;;0.10;0.10;;;30.30;99.90;;;;;;5039910;28;20021;-78
2023/07/22 09:58:02;;;;;;;0.35;0.35;;;30.20;99.90;;;;;;5039196;28;20581;-75
2023/07/22 10:00:33;;;;;;;;;;;30.20;99.90;;;;;;5040625;28;20118;-72
2023/07/22 10:03:00;;;;;;;0.20;0.20;;;30.30;99.90;;;;;;5040426;28;19962;-71
2023/07/22 10:05:29;;;;;;;0.10;0.10;;;30.20;99.90;;;;;;5027546;28;20674;-70
2023/07/22 10:07:57;;;;;;;0.08;0.05;;;30.30;99.90;;;;;;5019902;28;20572;-70
2023/07/22 10:10:30;;;;;;;0.32;0.32;;;30.40;99.90;;;;;;5021684;28;20730;-74
2023/07/22 10:12:57;;;;;;;1.17;1.13;;;27.20;99.90;;;;;;5038839;28;20099;-71
2023/07/22 10:15:26;;;;;;;0.17;0.17;;;30.30;99.90;;;;;;5038135;28;20120;-71
2023/07/22 10:17:53;;;;;;;0.50;0.50;;;30.60;99.90;;;;;;5025313;28;20133;-71
2023/07/22 10:20:19;;;;;;;0.35;0.35;;;30.70;99.90;;;;;;5019205;28;20017;-71
2023/07/22 10:22:47;;;;;;;0.35;0.35;;;30.80;99.90;;;;;;5019400;28;20049;-73
2023/07/22 10:25:16;;;;;;;0.20;0.20;;;31.10;99.90;;;;;;5030147;28;20112;-77
2023/07/22 10:27:42;;;;;;;1.80;1.65;;;31.30;99.20;;;;;;5039190;28;20567;-72
2023/07/22 10:30:10;;;;;;;0.10;0.10;;;31.50;99.20;;;;;;5036947;28;20028;-73
2023/07/22 10:32:48;;;;;;;0.10;0.10;;;31.40;98.40;;;;;;5031690;28;20648;-72
2023/07/22 10:35:42;;;;;;;0.55;0.40;;;31.40;98.00;;;;;;5030112;28;20021;-79
2023/07/22 10:38:12;;;;;;;0.32;0.30;;;31.60;98.00;;;;;;4988655;28;20034;-77
2023/07/22 10:40:54;;;;;;;2.40;1.10;;;31.70;97.50;;;;;;4989001;28;20036;-73
2023/07/22 10:43:43;;;;;;;0.63;0.32;;;31.70;97.50;;;;;;4996279;28;20042;-83
2023/07/22 10:46:14;;;;;;;0.00;0.00;;;31.80;97.00;;;;;;4994670;28;20060;-82
2023/07/22 10:48:41;;;;;;;0.60;0.60;;;32.10;96.70;;;;;;4998625;28;20046;-77
2023/07/22 10:51:15;;;;;;;0.10;0.10;;;31.90;96.60;;;;;;5002569;28;20014;-80
2023/07/22 10:53:46;;;;;;;0.15;0.15;;;32.10;96.50;;;;;;5008119;28;20029;-87
2023/07/22 10:56:14;;;;;;;5.20;2.20;;;32.00;95.70;;;;;;5005825;28;20029;-71
2023/07/22 10:58:46;;;;;;;0.85;0.73;;;32.10;95.60;;;;;;4996825;28;20042;-73
2023/07/22 11:01:27;;;;;;;0.98;0.50;;;32.20;96.00;;;;;;4991557;28;20018;-74
2023/07/22 11:04:12;;;;;;;0.38;0.35;;;32.50;95.00;;;;;;4985447;28;20053;-85
2023/07/22 11:06:56;;;;;;;3.75;1.38;;;32.60;95.60;;;;;;4983456;28;20061;-89
2023/07/22 11:09:28;;;;;;;1.15;1.05;;;32.80;94.80;;;;;;4995867;28;20060;-76
2023/07/22 11:12:02;;;;;;;4.82;1.27;;;32.80;95.10;;;;;;4979875;28;20022;-76
2023/07/22 11:14:30;;;;;;;3.05;0.47;;;31.30;94.40;;;;;;4994165;28;20669;-81
2023/07/22 11:17:03;;;;;;;0.35;0.28;;;32.90;94.80;;;;;;5003254;28;20029;-77
2023/07/22 11:19:30;;;;;;;0.05;0.05;;;32.80;94.60;;;;;;4998344;28;20211;-71
2023/07/22 11:21:55;;;;;;;0.10;0.10;;;32.90;94.20;;;;;;4995381;28;20093;-76
2023/07/22 11:24:23;;;;;;;1.38;1.27;;;33.20;94.10;;;;;;5004146;28;20065;-76
2023/07/22 11:26:51;;;;;;;2.10;2.00;;;33.40;93.40;;;;;;5006321;28;20045;-79
2023/07/22 11:29:17;;;;;;;0.95;0.95;;;33.70;93.40;;;;;;4993778;28;20504;-71
2023/07/22 11:31:46;;;;;;;0.55;0.55;;;33.90;93.60;;;;;;4987018;28;20040;-79
2023/07/22 11:34:13;;;;;;;0.10;0.10;;;34.30;93.00;;;;;;4991018;28;20025;-72
2023/07/22 11:36:39;;;;;;;1.80;0.75;;;34.60;91.80;;;;;;4981655;28;20031;-80
2023/07/22 11:39:09;;;;;;;0.50;0.50;;;34.80;92.30;;;;;;4982126;28;20038;-74
2023/07/22 11:41:36;;;;;;;4.30;1.88;;;34.90;91.50;;;;;;4988772;28;20022;-74
2023/07/22 11:44:08;;;;;;;0.20;0.20;;;34.80;91.40;;;;;;4980143;28;20038;-79
2023/07/22 11:46:34;;;;;;;;;;;35.00;91.10;;;;;;4980690;28;20680;-80
2023/07/22 11:49:01;;;;;;;0.30;0.30;;;35.10;90.60;;;;;;4998459;28;19920;-78
2023/07/22 11:51:27;;;;;;;0.20;0.20;;;35.40;90.80;;;;;;4997828;28;20105;-77
2023/07/22 11:54:15;;;;;;;;;;;;;;;;;;;;;
2023/07/22 11:56:41;;;;;;;0.40;0.40;;;35.50;89.20;;;;;;5188696;23;20537;-79
2023/07/22 11:59:09;;;;;;;4.03;1.13;;;35.90;89.60;;;;;;5060973;28;20084;-81
2023/07/22 12:01:35;;;;;;;0.20;0.20;;;36.00;88.20;;;;;;5061574;28;20409;-84
2023/07/22 12:04:01;;;;;;;1.17;0.75;;;35.60;88.90;;;;;;5075785;28;20106;-83
2023/07/22 12:06:27;;;;;;;3.28;0.68;;;36.80;87.40;;;;;;5083033;28;20733;-76
2023/07/22 12:08:53;;;;;;;0.28;0.28;;;37.10;86.70;;;;;;5078289;28;20094;-78
2023/07/22 12:11:20;;;;;;;0.60;0.50;;;37.40;85.10;;;;;;5078322;28;20031;-74
2023/07/22 12:13:50;;;;;;;4.03;2.25;;;37.90;84.10;;;;;;5078120;28;20009;-74
2023/07/22 12:16:23;;;;;;;4.38;0.95;;;37.80;82.90;;;;;;5077026;28;20107;-76
2023/07/22 12:18:49;;;;;;;0.30;0.30;;;38.20;81.00;;;;;;5060619;28;20658;-75
2023/07/22 12:21:15;;;;;;;2.45;0.85;;;38.50;80.00;;;;;;5077509;28;20024;-85
2023/07/22 12:23:42;;;;;;;0.75;0.45;;;38.60;79.20;;;;;;5077140;28;20024;-75
2023/07/22 12:26:08;;;;;;;10.55;2.40;;;38.80;78.40;;;;;;5078149;28;20025;-78
2023/07/22 12:28:34;;;;;;;1.80;1.33;;;38.80;78.90;;;;;;5077542;28;20689;-78
2023/07/22 12:31:00;;;;;;;0.98;0.60;;;39.50;77.20;;;;;;5077167;28;20024;-75
2023/07/22 12:33:27;;;;;;;1.85;0.52;;;40.20;76.90;;;;;;5076288;28;20047;-84
2023/07/22 12:35:56;;;;;;;15.00;2.75;;;40.00;75.50;;;;;;5076913;28;20020;-76
2023/07/22 12:38:22;;;;;;;0.52;0.40;;;40.20;75.00;;;;;;5058304;28;20032;-74
2023/07/22 12:40:48;;;;;;;0.38;0.30;;;40.00;75.10;;;;;;5076529;28;20688;-76
2023/07/22 12:43:14;;;;;;;0.30;0.30;;;40.60;73.80;;;;;;5077680;28;20024;-79
2023/07/22 12:45:40;;;;;;;4.75;0.63;;;40.50;73.20;;;;;;5080656;28;20742;-82
2023/07/22 12:48:06;;;;;;;4.35;0.45;;;40.20;73.30;;;;;;5080538;28;20015;-76
2023/07/22 12:50:32;;;;;;;7.68;2.95;;;39.10;70.40;;;;;;5080397;28;20653;-74